Time;durP1;ratioP1;P1;durP2;ratioP2;P2;SDS_P1;SDS_P2;PMS_P1;PMS_P2;Temp;Humidity;BMP_temperature;BMP_pressure;BME280_temperature;BME280_humidity;BME280_pressure;Samples;Min_cycle;Max_cycle;Signal;HPM_P1;HPM_P2
2023/05/19 00:02:20;;;;;;;9.10;4.13;;;;;;;9.88;77.22;102671.81;5070001;28;20037;-35
2023/05/19 00:04:46;;;;;;;6.53;3.33;;;;;;;9.81;78.70;102673.59;5069606;28;20020;-36
2023/05/19 00:07:20;;;;;;;8.68;4.47;;;;;;;9.69;79.63;102664.22;5070195;28;20451;-36
2023/05/19 00:09:46;;;;;;;8.18;3.75;;;;;;;9.80;80.71;102659.19;5070367;28;20032;-36
2023/05/19 00:12:12;;;;;;;6.20;3.47;;;;;;;9.69;80.30;102661.50;5059857;28;20465;-35
2023/05/19 00:14:37;;;;;;;5.88;3.40;;;;;;;9.72;79.56;102666.56;5056288;28;20056;-36
2023/05/19 00:17:03;;;;;;;5.32;3.35;;;;;;;9.75;81.44;102663.47;5055992;28;20075;-36
2023/05/19 00:19:31;;;;;;;8.15;3.67;;;;;;;9.74;82.30;102665.34;5056035;28;20075;-36
2023/05/19 00:21:57;;;;;;;5.78;3.20;;;;;;;9.74;82.69;102661.81;5056978;28;20025;-35
2023/05/19 00:24:22;;;;;;;;;;;;;;;9.85;77.79;102665.94;5056740;28;20036;-35
2023/05/19 00:26:47;;;;;;;5.53;3.10;;;;;;;9.68;83.34;102649.88;5056901;28;19909;-36
2023/05/19 00:29:17;;;;;;;5.47;3.07;;;;;;;9.48;84.08;102632.47;5055978;28;20264;-36
2023/05/19 00:31:42;;;;;;;4.95;3.10;;;;;;;9.38;87.44;102643.50;5056805;28;20032;-36
2023/05/19 00:34:08;;;;;;;5.55;3.63;;;;;;;9.38;86.97;102638.09;5056112;28;20029;-36
2023/05/19 00:36:33;;;;;;;6.30;3.27;;;;;;;9.41;86.56;102639.59;5055187;28;20440;-36
2023/05/19 00:38:58;;;;;;;5.37;3.27;;;;;;;9.28;87.44;102621.31;5055558;28;20028;-36
2023/05/19 00:41:24;;;;;;;4.80;3.00;;;;;;;9.25;86.49;102630.59;5056376;28;20035;-35
2023/05/19 00:43:50;;;;;;;;;;;;;;;9.42;84.61;102633.16;5056734;28;20385;-36
2023/05/19 00:46:15;;;;;;;7.75;3.47;;;;;;;9.28;88.39;102626.72;5056299;28;19995;-36
2023/05/19 00:48:43;;;;;;;7.73;3.37;;;;;;;9.30;87.50;102635.44;5055717;28;20025;-36
2023/05/19 00:51:13;;;;;;;6.45;3.20;;;;;;;9.25;89.09;102635.16;5055963;28;20021;-35
2023/05/19 00:53:39;;;;;;;5.93;3.17;;;;;;;9.25;90.10;102635.16;5055799;28;20025;-36
2023/05/19 00:56:04;;;;;;;5.07;3.03;;;;;;;9.31;90.33;102630.88;5055764;28;20021;-35
2023/05/19 00:58:31;;;;;;;6.47;3.50;;;;;;;9.27;90.46;102628.56;5055431;28;20105;-35
2023/05/19 01:01:03;;;;;;;5.70;3.30;;;;;;;9.29;88.35;102641.88;5053955;28;20049;-36
2023/05/19 01:03:34;;;;;;;7.97;3.50;;;;;;;9.27;89.97;102638.50;5056246;28;20021;-36
2023/05/19 01:06:03;;;;;;;4.38;3.22;;;;;;;9.15;89.89;102629.13;5056138;28;20071;-35
2023/05/19 01:08:31;;;;;;;7.47;3.08;;;;;;;9.24;90.44;102630.78;5054944;28;20484;-35
2023/05/19 01:10:56;;;;;;;7.50;3.40;;;;;;;9.23;90.12;102634.50;5055797;28;20078;-35
2023/05/19 01:13:22;;;;;;;10.93;3.42;;;;;;;9.16;90.71;102636.22;5055178;28;20029;-35
2023/05/19 01:16:25;;;;;;;8.20;3.67;;;;;;;9.13;91.08;102636.59;5055159;28;20037;-36
2023/05/19 01:19:09;;;;;;;7.35;4.00;;;;;;;9.09;90.81;102640.66;5054005;28;20358;-36
2023/05/19 01:21:47;;;;;;;7.03;3.05;;;;;;;9.04;90.57;102635.78;5055022;28;20029;-35
2023/05/19 01:24:31;;;;;;;5.20;3.35;;;;;;;8.94;90.70;102629.78;5054029;28;20427;-35
2023/05/19 01:27:08;;;;;;;6.93;3.88;;;;;;;8.88;91.32;102635.84;5054863;28;20057;-36
2023/05/19 01:29:41;;;;;;;7.82;4.10;;;;;;;8.94;93.21;102630.63;5054793;28;20040;-35
2023/05/19 01:32:09;;;;;;;6.53;3.45;;;;;;;8.86;92.58;102630.63;5055650;28;20032;-35
2023/05/19 01:34:41;;;;;;;5.30;3.30;;;;;;;8.77;94.66;102632.53;5054978;28;20074;-35
2023/05/19 01:37:07;;;;;;;4.60;3.22;;;;;;;8.73;94.96;102633.88;5054778;28;20116;-35
2023/05/19 01:39:32;;;;;;;5.35;3.33;;;;;;;8.77;94.72;102629.84;5055091;28;20104;-35
2023/05/19 01:41:59;;;;;;;5.95;3.70;;;;;;;8.84;94.57;102630.00;5054677;28;20422;-35
2023/05/19 01:44:24;;;;;;;5.65;3.40;;;;;;;8.84;94.66;102635.38;5054764;28;20150;-35
2023/05/19 01:46:50;;;;;;;7.20;3.85;;;;;;;8.82;95.41;102632.00;5054619;28;20029;-36
2023/05/19 01:49:16;;;;;;;6.95;3.25;;;;;;;8.86;94.21;102627.94;5054513;28;20461;-35
2023/05/19 01:51:42;;;;;;;8.10;3.70;;;;;;;8.83;93.68;102627.44;5054567;28;20484;-35
2023/05/19 01:54:08;;;;;;;8.07;3.88;;;;;;;8.68;96.36;102620.09;5053177;28;20056;-36
2023/05/19 01:57:03;;;;;;;8.10;4.43;;;;;;;8.75;96.40;102625.66;5053736;28;20086;-35
2023/05/19 01:59:51;;;;;;;5.80;3.22;;;;;;;8.63;97.40;102624.34;5053938;28;20283;-35
2023/05/19 02:02:29;;;;;;;8.10;3.90;;;;;;;8.63;96.79;102624.34;5053675;28;20453;-36
2023/05/19 02:05:01;;;;;;;7.43;3.78;;;;;;;8.49;97.75;102605.19;5054750;28;20021;-35
2023/05/19 02:07:36;;;;;;;6.97;3.70;;;;;;;8.55;97.42;102619.00;5053001;28;20035;-35
2023/05/19 02:10:05;;;;;;;8.75;3.60;;;;;;;8.66;97.87;102622.13;5054135;28;20124;-36
2023/05/19 02:12:33;;;;;;;7.38;3.40;;;;;;;8.64;97.32;102618.78;5054634;28;20029;-35
2023/05/19 02:15:10;;;;;;;8.07;4.18;;;;;;;8.50;99.25;102622.22;5054244;28;20040;-35
2023/05/19 02:17:46;;;;;;;8.13;3.95;;;;;;;8.46;98.74;102612.78;5054290;28;20354;-35
2023/05/19 02:20:12;;;;;;;10.23;4.22;;;;;;;8.43;99.01;102607.72;5053903;28;20028;-35
2023/05/19 02:22:37;;;;;;;7.80;4.00;;;;;;;8.48;99.18;102614.28;5054535;28;20028;-35
2023/05/19 02:25:03;;;;;;;6.37;4.10;;;;;;;8.48;99.08;102608.03;5052655;28;20048;-35
2023/05/19 02:27:29;;;;;;;5.78;3.60;;;;;;;8.48;99.22;102608.03;5054407;28;20064;-35
2023/05/19 02:29:55;;;;;;;6.97;4.10;;;;;;;8.40;98.87;102614.31;5054027;28;20033;-35
2023/05/19 02:32:20;;;;;;;7.00;4.28;;;;;;;8.36;100.00;102609.41;5054030;28;20029;-36
2023/05/19 02:34:46;;;;;;;6.60;3.75;;;;;;;8.36;100.00;102610.28;5053483;28;20024;-35
2023/05/19 02:37:13;;;;;;;7.88;4.18;;;;;;;8.17;99.35;102589.91;5054016;28;20119;-35
2023/05/19 02:39:39;;;;;;;7.65;4.07;;;;;;;8.31;100.00;102612.63;5053829;28;20047;-35
2023/05/19 02:42:04;;;;;;;7.22;4.07;;;;;;;8.15;100.00;102585.69;5054463;28;20025;-35
2023/05/19 02:44:30;;;;;;;6.47;4.45;;;;;;;8.30;100.00;102608.25;5053500;28;20116;-36
2023/05/19 02:46:55;;;;;;;8.70;4.27;;;;;;;8.24;100.00;102604.38;5054425;28;20033;-35
2023/05/19 02:49:21;;;;;;;12.10;4.17;;;;;;;8.22;100.00;102589.41;5053303;28;20037;-35
2023/05/19 02:51:46;;;;;;;9.77;4.30;;;;;;;8.10;100.00;102580.00;5053535;28;20025;-35
2023/05/19 02:54:11;;;;;;;6.50;4.07;;;;;;;8.21;100.00;102595.81;5053513;28;20071;-36
2023/05/19 02:56:36;;;;;;;5.97;3.77;;;;;;;8.11;100.00;102597.88;5054315;28;20029;-35
2023/05/19 02:59:02;;;;;;;7.47;3.90;;;;;;;8.17;100.00;102589.91;5053414;28;20031;-35
2023/05/19 03:01:27;;;;;;;7.13;4.17;;;;;;;8.09;100.00;102578.31;5054158;28;20049;-35
2023/05/19 03:03:53;;;;;;;7.43;4.53;;;;;;;8.07;100.00;102591.13;5053402;28;20036;-35
2023/05/19 03:06:18;;;;;;;11.10;4.63;;;;;;;7.90;100.00;102574.97;5053373;28;20060;-35
2023/05/19 03:08:43;;;;;;;5.67;3.83;;;;;;;8.08;100.00;102592.81;5053344;28;20461;-35
2023/05/19 03:11:09;;;;;;;9.63;4.00;;;;;;;8.00;100.00;102588.25;5052984;28;20028;-35
2023/05/19 03:13:34;;;;;;;7.07;4.43;;;;;;;7.97;100.00;102597.53;5052994;28;20021;-35
2023/05/19 03:16:00;;;;;;;8.15;4.13;;;;;;;7.99;100.00;102595.50;5053858;28;20033;-35
2023/05/19 03:18:26;;;;;;;10.25;4.68;;;;;;;7.96;100.00;102595.03;5053761;28;20017;-35
2023/05/19 03:20:55;;;;;;;7.00;4.47;;;;;;;7.99;100.00;102600.91;5053421;28;20511;-36
2023/05/19 03:23:21;;;;;;;7.97;4.53;;;;;;;7.98;100.00;102590.31;5052942;28;20075;-35
2023/05/19 03:25:46;;;;;;;6.90;3.75;;;;;;;7.97;100.00;102597.53;5052940;28;20428;-35
2023/05/19 03:28:12;;;;;;;7.32;4.57;;;;;;;8.06;100.00;102602.94;5053112;28;20032;-36
2023/05/19 03:30:37;;;;;;;9.23;4.40;;;;;;;8.04;100.00;102603.06;5053136;28;20051;-35
2023/05/19 03:33:04;;;;;;;7.23;4.20;;;;;;;8.03;100.00;102609.47;5053424;28;20068;-36
2023/05/19 03:35:29;;;;;;;7.93;4.25;;;;;;;8.01;100.00;102603.44;5053419;28;20100;-35
2023/05/19 03:37:55;;;;;;;6.20;4.05;;;;;;;7.99;100.00;102606.28;5053052;28;20527;-36
2023/05/19 03:40:20;;;;;;;5.68;4.22;;;;;;;7.94;100.00;102614.03;5053340;28;20036;-35
2023/05/19 03:42:45;;;;;;;7.57;4.13;;;;;;;7.96;100.00;102608.50;5053221;28;20029;-36
2023/05/19 03:45:11;;;;;;;7.07;3.97;;;;;;;7.97;100.00;102612.88;5053309;28;20409;-36
2023/05/19 03:47:36;;;;;;;8.47;4.87;;;;;;;7.82;100.00;102601.94;5055875;28;20259;-36
2023/05/19 03:50:02;;;;;;;6.10;4.50;;;;;;;7.95;100.00;102617.56;5056829;28;20086;-36
2023/05/19 03:52:27;;;;;;;5.35;3.92;;;;;;;7.81;100.00;102604.78;5056510;28;20033;-35
2023/05/19 03:54:52;;;;;;;8.90;4.17;;;;;;;7.85;100.00;102606.13;5057001;28;20082;-35
2023/05/19 03:57:18;;;;;;;8.80;4.67;;;;;;;7.88;100.00;102616.59;5056754;28;20041;-36
2023/05/19 03:59:43;;;;;;;8.38;4.47;;;;;;;7.67;100.00;102596.41;5056528;28;20080;-35
2023/05/19 04:02:09;;;;;;;6.30;4.18;;;;;;;7.77;100.00;102612.38;5056345;28;20032;-35
2023/05/19 04:04:36;;;;;;;8.13;4.38;;;;;;;7.76;100.00;102602.63;5056211;28;20040;-36
2023/05/19 04:07:01;;;;;;;7.32;4.30;;;;;;;7.81;100.00;102615.56;5056459;28;20028;-35
2023/05/19 04:09:26;;;;;;;8.13;4.30;;;;;;;7.86;100.00;102610.53;5056725;28;20025;-35
2023/05/19 04:11:52;;;;;;;7.83;4.37;;;;;;;7.71;100.00;102596.88;5056652;28;20029;-35
2023/05/19 04:14:18;;;;;;;8.33;4.50;;;;;;;7.76;100.00;102597.25;5056288;28;20264;-35
2023/05/19 04:16:44;;;;;;;6.40;4.57;;;;;;;7.84;100.00;102609.84;5057068;28;20029;-35
2023/05/19 04:19:09;;;;;;;8.98;4.50;;;;;;;7.82;100.00;102609.19;5056160;28;20112;-35
2023/05/19 04:21:35;;;;;;;9.13;4.90;;;;;;;7.94;100.00;102619.44;5055896;28;20063;-35
2023/05/19 04:24:00;;;;;;;7.63;4.70;;;;;;;7.81;100.00;102608.34;5055888;28;20276;-35
2023/05/19 04:26:29;;;;;;;7.83;4.33;;;;;;;7.84;100.00;102599.91;5056384;28;20488;-35
2023/05/19 04:28:55;;;;;;;7.80;4.53;;;;;;;7.81;100.00;102602.97;5055990;28;20036;-35
2023/05/19 04:31:20;;;;;;;9.57;5.15;;;;;;;7.96;100.00;102612.03;5055755;28;20393;-35
2023/05/19 04:33:47;;;;;;;7.40;4.87;;;;;;;7.85;100.00;102601.59;5055986;28;20032;-36
2023/05/19 04:36:12;;;;;;;8.90;4.63;;;;;;;7.83;100.00;102619.78;5056745;28;20266;-35
2023/05/19 04:38:38;;;;;;;9.10;5.32;;;;;;;7.84;100.00;102618.75;5056133;28;20021;-35
2023/05/19 04:41:05;;;;;;;9.27;5.95;;;;;;;7.91;100.00;102614.41;5055845;28;20021;-35
2023/05/19 04:43:30;;;;;;;9.07;4.47;;;;;;;8.04;100.00;102610.31;5055996;28;20083;-35
2023/05/19 04:45:57;;;;;;;7.03;4.82;;;;;;;7.95;100.00;102601.41;5056308;28;20401;-35
2023/05/19 04:48:22;;;;;;;;;;;;;;;8.09;100.00;102616.03;5056092;28;20029;-35
2023/05/19 04:50:48;;;;;;;7.35;5.35;;;;;;;7.94;100.00;102602.44;5055319;28;19954;-35
2023/05/19 04:53:14;;;;;;;8.52;4.82;;;;;;;8.04;100.00;102615.72;5055542;28;20047;-36
2023/05/19 04:55:39;;;;;;;7.22;4.90;;;;;;;8.02;100.00;102605.13;5055623;28;20032;-35
2023/05/19 04:58:05;;;;;;;6.23;4.93;;;;;;;8.14;100.00;102619.06;5055111;28;20060;-35
2023/05/19 05:00:31;;;;;;;8.27;4.65;;;;;;;8.06;100.00;102603.75;5055514;28;20076;-35
2023/05/19 05:02:56;;;;;;;8.68;5.47;;;;;;;8.21;100.00;102618.22;5055116;28;20025;-35
2023/05/19 05:05:23;;;;;;;6.93;4.38;;;;;;;8.39;100.00;102618.00;5055367;28;20432;-35
2023/05/19 05:07:48;;;;;;;8.77;4.75;;;;;;;8.47;100.00;102619.84;5055292;28;20025;-36
2023/05/19 05:10:14;;;;;;;7.50;4.60;;;;;;;8.57;100.00;102623.19;5055272;28;20035;-36
2023/05/19 05:12:40;;;;;;;6.97;5.15;;;;;;;8.67;100.00;102622.97;5055181;28;20037;-35
2023/05/19 05:15:06;;;;;;;6.25;4.47;;;;;;;8.75;100.00;102620.25;5055738;28;20032;-36
2023/05/19 05:17:32;;;;;;;;;;;;;;;8.92;100.00;102627.22;5056220;28;20029;-35
2023/05/19 05:19:58;;;;;;;7.93;4.60;;;;;;;8.95;100.00;102624.19;5054939;28;19944;-35
2023/05/19 05:22:23;;;;;;;8.20;5.03;;;;;;;8.86;100.00;102611.75;5055886;28;20068;-35
2023/05/19 05:24:49;;;;;;;6.57;4.40;;;;;;;9.04;100.00;102619.59;5055025;28;20059;-35
2023/05/19 05:27:15;;;;;;;8.35;4.88;;;;;;;9.13;100.00;102628.50;5054976;28;20029;-36
2023/05/19 05:29:40;;;;;;;9.13;4.67;;;;;;;9.16;100.00;102611.91;5054478;28;20043;-35
2023/05/19 05:32:06;;;;;;;9.57;5.40;;;;;;;9.28;100.00;102626.72;5054855;28;20028;-36
2023/05/19 05:34:32;;;;;;;7.90;4.57;;;;;;;9.43;100.00;102630.31;5054765;28;20116;-35
2023/05/19 05:36:57;;;;;;;8.93;5.00;;;;;;;9.54;100.00;102631.75;5054496;28;20478;-35
2023/05/19 05:39:23;;;;;;;9.23;4.40;;;;;;;9.65;100.00;102625.06;5054706;28;20025;-35
2023/05/19 05:41:48;;;;;;;6.80;4.57;;;;;;;9.70;100.00;102626.19;5055350;28;20103;-35
2023/05/19 05:44:13;;;;;;;7.03;4.30;;;;;;;9.77;100.00;102621.75;5054672;28;20025;-35
2023/05/19 05:46:39;;;;;;;8.33;4.40;;;;;;;9.79;100.00;102625.09;5055442;28;20016;-36
2023/05/19 05:49:05;;;;;;;8.82;4.45;;;;;;;9.75;100.00;102628.34;5054235;28;20696;-35
2023/05/19 05:51:31;;;;;;;6.85;4.53;;;;;;;9.71;100.00;102621.63;5054804;28;20488;-35
2023/05/19 05:53:59;;;;;;;7.32;4.95;;;;;;;9.85;100.00;102634.34;5055261;28;20033;-35
2023/05/19 05:56:25;;;;;;;8.50;5.20;;;;;;;9.87;100.00;102613.41;5054430;28;20129;-35
2023/05/19 05:58:50;;;;;;;5.72;4.20;;;;;;;10.02;100.00;102624.22;5054279;28;20036;-35
2023/05/19 06:01:16;;;;;;;7.53;5.40;;;;;;;9.97;100.00;102621.25;5055358;28;20053;-35
2023/05/19 06:03:45;;;;;;;10.23;4.85;;;;;;;9.83;100.00;102597.72;5053910;28;20336;-35
2023/05/19 06:06:11;;;;;;;6.90;4.65;;;;;;;9.99;100.00;102624.59;5055055;28;20483;-35
2023/05/19 06:08:36;;;;;;;8.93;4.80;;;;;;;10.09;100.00;102624.31;5053863;28;20056;-35
2023/05/19 06:11:08;;;;;;;8.50;4.47;;;;;;;10.15;100.00;102619.03;5053595;28;20378;-36
2023/05/19 06:13:35;;;;;;;6.93;4.32;;;;;;;10.15;99.89;102623.59;5053783;28;20028;-35
2023/05/19 06:16:01;;;;;;;8.18;4.22;;;;;;;10.14;99.15;102630.84;5053992;28;20059;-35
2023/05/19 06:18:26;;;;;;;7.28;4.50;;;;;;;10.24;99.12;102630.63;5053731;28;20057;-35
2023/05/19 06:20:52;;;;;;;9.40;4.72;;;;;;;10.30;98.15;102636.16;5054207;28;20025;-35
2023/05/19 06:23:17;;;;;;;9.23;5.43;;;;;;;10.32;98.53;102631.38;5053921;28;20104;-35
2023/05/19 06:25:42;;;;;;;8.37;5.00;;;;;;;10.38;97.90;102635.19;5054186;28;20389;-36
2023/05/19 06:28:08;;;;;;;7.17;5.27;;;;;;;10.36;97.73;102631.84;5053585;28;20279;-36
2023/05/19 06:30:33;;;;;;;6.93;4.93;;;;;;;10.45;96.79;102629.91;5053939;28;20029;-35
2023/05/19 06:32:58;;;;;;;8.67;4.80;;;;;;;10.47;96.19;102622.44;5069000;28;20032;-36
2023/05/19 06:35:24;;;;;;;6.70;4.70;;;;;;;10.57;94.90;102631.94;5053458;28;20263;-35
2023/05/19 06:37:49;;;;;;;12.90;5.17;;;;;;;10.68;96.29;102627.06;5053723;28;20029;-36
2023/05/19 06:40:15;;;;;;;9.25;4.53;;;;;;;10.90;95.22;102634.25;5054184;28;20290;-35
2023/05/19 06:42:40;;;;;;;7.80;4.88;;;;;;;10.98;94.92;102612.47;5053281;28;20389;-35
2023/05/19 06:45:06;;;;;;;8.77;4.83;;;;;;;11.18;92.47;102626.25;5053978;28;20028;-35
2023/05/19 06:47:32;;;;;;;5.63;4.00;;;;;;;11.35;92.63;102627.66;5053598;28;20268;-36
2023/05/19 06:49:57;;;;;;;9.40;4.97;;;;;;;11.38;90.76;102626.44;5053622;28;20059;-35
2023/05/19 06:52:23;;;;;;;9.60;4.67;;;;;;;11.35;90.84;102633.06;5053295;28;20384;-35
2023/05/19 06:54:49;;;;;;;8.25;4.18;;;;;;;11.58;90.98;102627.47;5053722;28;20036;-36
2023/05/19 06:57:14;;;;;;;8.73;4.32;;;;;;;11.78;90.86;102632.22;5053503;28;20025;-36
2023/05/19 06:59:42;;;;;;;9.68;4.20;;;;;;;11.86;89.21;102626.72;5053165;28;20084;-36
2023/05/19 07:02:07;;;;;;;8.25;4.43;;;;;;;11.83;87.84;102621.66;5054270;28;20029;-36
2023/05/19 07:04:33;;;;;;;8.05;4.15;;;;;;;11.97;87.69;102628.03;5053131;28;20048;-36
2023/05/19 07:06:58;;;;;;;6.10;3.83;;;;;;;12.12;87.93;102631.50;5053960;28;20112;-36
2023/05/19 07:09:23;;;;;;;7.55;3.72;;;;;;;12.12;84.94;102626.06;5053026;28;20035;-36
2023/05/19 07:11:49;;;;;;;9.80;4.07;;;;;;;12.17;84.44;102625.47;5053669;28;20036;-36
2023/05/19 07:14:14;;;;;;;10.48;4.00;;;;;;;12.29;83.83;102634.72;5053258;28;20037;-36
2023/05/19 07:16:40;;;;;;;6.55;3.47;;;;;;;12.29;82.51;102630.13;5053897;28;20029;-36
2023/05/19 07:19:05;;;;;;;9.00;3.92;;;;;;;12.37;82.42;102632.69;5053298;28;20029;-36
2023/05/19 07:21:30;;;;;;;9.90;4.17;;;;;;;12.39;81.12;102624.34;5054370;28;20029;-36
2023/05/19 07:23:56;;;;;;;9.65;4.50;;;;;;;12.54;83.46;102641.38;5057298;28;20028;-35
2023/05/19 07:26:21;;;;;;;7.57;3.60;;;;;;;12.66;82.81;102632.66;5057807;28;20116;-35
2023/05/19 07:28:46;;;;;;;6.57;3.30;;;;;;;12.81;79.75;102634.16;5057138;28;20090;-35
2023/05/19 07:31:12;;;;;;;8.48;3.80;;;;;;;12.91;78.85;102627.53;5057476;28;20047;-35
2023/05/19 07:33:37;;;;;;;7.13;3.70;;;;;;;12.87;79.04;102632.53;5057075;28;20021;-36
2023/05/19 07:36:03;;;;;;;5.28;3.22;;;;;;;12.92;78.09;102621.88;5057113;28;20255;-35
2023/05/19 07:38:30;;;;;;;8.52;3.90;;;;;;;13.10;79.69;102622.16;5057537;28;20112;-36
2023/05/19 07:40:55;;;;;;;5.50;3.50;;;;;;;13.20;77.90;102629.09;5056889;28;20032;-36
2023/05/19 07:43:21;;;;;;;6.43;3.58;;;;;;;13.34;76.58;102623.50;5056969;28;20377;-36
2023/05/19 07:45:46;;;;;;;5.32;3.15;;;;;;;13.44;75.16;102614.13;5056705;28;20048;-36
2023/05/19 07:48:12;;;;;;;7.93;3.15;;;;;;;13.56;75.39;102616.00;5056880;28;20025;-36
2023/05/19 07:50:37;;;;;;;;;;;;;;;13.73;77.57;102612.88;5057505;28;20033;-36
2023/05/19 07:53:03;;;;;;;6.43;2.83;;;;;;;13.86;74.58;102615.63;5056632;28;19919;-35
2023/05/19 07:55:28;;;;;;;6.47;3.00;;;;;;;13.86;73.17;102612.91;5056419;28;20033;-35
2023/05/19 07:57:53;;;;;;;5.43;2.85;;;;;;;13.94;72.74;102601.78;5056651;28;20275;-35
2023/05/19 08:00:19;;;;;;;;;;;;;;;14.15;72.67;102611.59;5057087;28;20122;-36
2023/05/19 08:02:44;;;;;;;6.88;2.97;;;;;;;14.12;67.62;102607.41;5057019;28;19912;-36
2023/05/19 08:05:10;;;;;;;5.43;2.75;;;;;;;14.29;66.82;102607.78;5057389;28;20029;-36
2023/05/19 08:07:36;;;;;;;5.97;2.33;;;;;;;14.18;65.45;102609.28;5057031;28;20420;-36
2023/05/19 08:13:28;;;;;;;5.28;2.53;;;;;;;14.46;65.42;102594.56;5066426;28;20251;-36
2023/05/19 08:15:58;;;;;;;;;;;;;;;14.62;68.82;102599.56;5057012;28;20487;-36
2023/05/19 08:19:17;;;;;;;5.63;2.28;;;;;;;14.72;69.96;102590.09;5056212;28;19917;-36
2023/05/19 08:21:43;;;;;;;4.18;2.40;;;;;;;14.86;67.98;102594.44;5057210;28;20037;-36
2023/05/19 08:24:09;;;;;;;4.93;2.40;;;;;;;14.92;68.24;102583.50;5056121;28;20025;-36
2023/05/19 08:26:34;;;;;;;;;;;;;;;15.21;69.69;102583.97;5056748;28;20541;-36
2023/05/19 08:28:59;;;;;;;6.30;1.90;;;;;;;15.19;62.47;102584.19;5056327;28;19995;-36
2023/05/19 08:31:25;;;;;;;5.93;2.17;;;;;;;15.20;61.66;102580.41;5056339;28;20502;-36
2023/05/19 08:33:50;;;;;;;;;;;;;;;15.27;63.47;102590.41;5055846;28;20025;-36
2023/05/19 08:36:16;;;;;;;7.32;2.90;;;;;;;15.08;61.79;102573.13;5056451;28;19927;-36
2023/05/19 08:38:41;;;;;;;;;;;;;;;15.30;65.15;102585.38;5056843;28;20342;-36
2023/05/19 08:41:07;;;;;;;4.63;1.87;;;;;;;15.31;60.72;102567.13;5055806;28;20273;-36
2023/05/19 08:43:32;;;;;;;3.75;1.90;;;;;;;15.34;61.28;102566.69;5056292;28;20260;-36
2023/05/19 08:45:58;;;;;;;6.10;2.17;;;;;;;15.49;61.39;102567.19;5056070;28;20040;-36
2023/05/19 08:48:27;;;;;;;6.20;2.38;;;;;;;15.61;60.92;102568.13;5055710;28;20152;-36
2023/05/19 08:51:16;;;;;;;6.90;2.22;;;;;;;15.79;60.61;102567.38;5055396;28;20035;-36
2023/05/19 08:53:47;;;;;;;5.28;1.98;;;;;;;15.95;56.36;102560.50;5055861;28;20029;-36
2023/05/19 08:56:21;;;;;;;5.88;2.30;;;;;;;16.03;58.05;102560.22;5055745;28;20055;-36
2023/05/19 08:58:49;;;;;;;4.72;2.00;;;;;;;16.17;58.07;102560.94;5055178;28;20028;-36
2023/05/19 09:01:18;;;;;;;8.80;2.15;;;;;;;16.31;57.76;102548.81;5055721;28;20067;-36
2023/05/19 09:03:45;;;;;;;4.00;1.80;;;;;;;16.39;57.74;102561.28;5055694;28;20116;-36
2023/05/19 09:06:13;;;;;;;3.53;1.60;;;;;;;16.43;58.01;102537.94;5055900;28;20426;-36
2023/05/19 09:08:40;;;;;;;6.03;2.15;;;;;;;16.64;57.09;102544.81;5055019;28;20086;-36
2023/05/19 09:11:06;;;;;;;4.93;1.60;;;;;;;16.83;56.30;102531.97;5055535;28;20031;-36
2023/05/19 09:13:31;;;;;;;;;;;;;;;17.13;54.95;102546.47;5055658;28;20025;-36
2023/05/19 09:15:56;;;;;;;4.50;1.50;;;;;;;17.15;51.61;102544.34;5054943;28;20432;-36
2023/05/19 09:18:23;;;;;;;;;;;;;;;17.30;52.97;102532.13;5055471;28;20295;-36
2023/05/19 09:20:48;;;;;;;6.00;1.70;;;;;;;16.93;50.36;102537.72;5054683;28;20365;-36
2023/05/19 09:23:14;;;;;;;;;;;;;;;17.05;51.98;102533.13;5055486;28;20029;-36
2023/05/19 09:25:50;;;;;;;5.28;1.27;;;;;;;17.16;48.76;102524.13;5055594;28;19908;-36
2023/05/19 09:28:29;;;;;;;7.47;2.03;;;;;;;17.19;49.54;102539.22;5055751;28;20063;-36
2023/05/19 09:31:10;;;;;;;4.63;1.40;;;;;;;17.05;47.41;102524.94;5054888;28;20082;-36
2023/05/19 09:33:41;;;;;;;5.75;1.50;;;;;;;17.31;51.22;102520.09;5054568;28;20029;-36
2023/05/19 09:36:12;;;;;;;7.00;1.67;;;;;;;17.29;46.76;102523.09;5055077;28;20436;-36
2023/05/19 09:38:38;;;;;;;4.70;1.60;;;;;;;17.37;46.65;102520.03;5055260;28;20430;-36
2023/05/19 09:41:05;;;;;;;3.47;1.10;;;;;;;17.70;46.12;102518.59;5054615;28;20029;-36
2023/05/19 09:43:32;;;;;;;5.82;2.25;;;;;;;17.77;44.75;102513.06;5054099;28;20028;-36
2023/05/19 09:46:04;;;;;;;4.40;1.40;;;;;;;17.61;44.79;102526.31;5054289;28;20057;-36
2023/05/19 09:48:30;;;;;;;3.38;1.30;;;;;;;17.53;44.99;102513.00;5054199;28;20032;-36
2023/05/19 09:50:56;;;;;;;;;;;;;;;17.79;47.26;102514.47;5055212;28;20029;-36
2023/05/19 09:53:24;;;;;;;4.10;1.50;;;;;;;17.86;46.50;102528.00;5054371;28;19909;-36
2023/05/19 09:55:50;;;;;;;4.82;1.40;;;;;;;17.71;45.33;102537.53;5054730;28;20355;-36
2023/05/19 09:58:19;;;;;;;4.13;1.80;;;;;;;17.80;47.42;102523.50;5054052;28;20025;-36
2023/05/19 10:00:46;;;;;;;6.15;2.13;;;;;;;17.82;45.26;102515.91;5055010;28;20381;-37
2023/05/19 10:03:12;;;;;;;5.22;1.48;;;;;;;17.80;44.94;102524.31;5054244;28;20104;-37
2023/05/19 10:05:40;;;;;;;5.00;1.55;;;;;;;17.94;45.50;102514.81;5054509;28;20477;-36
2023/05/19 10:08:09;;;;;;;3.90;1.60;;;;;;;17.95;45.75;102510.97;5054150;28;20114;-36
2023/05/19 10:10:36;;;;;;;4.97;1.50;;;;;;;18.04;44.03;102519.66;5054435;28;20152;-37
2023/05/19 10:13:03;;;;;;;4.50;1.30;;;;;;;17.74;43.48;102515.19;5054035;28;20029;-37
2023/05/19 10:15:28;;;;;;;5.03;1.25;;;;;;;17.58;44.05;102515.03;5054373;28;20377;-37
2023/05/19 10:17:55;;;;;;;3.72;1.15;;;;;;;17.54;45.78;102528.34;5053966;28;20031;-36
2023/05/19 10:20:20;;;;;;;5.63;1.70;;;;;;;17.46;44.62;102504.06;5053641;28;20147;-36
2023/05/19 10:22:47;;;;;;;4.47;1.50;;;;;;;17.44;43.62;102514.44;5053972;28;20107;-36
2023/05/19 10:25:18;;;;;;;5.15;1.63;;;;;;;17.63;45.61;102510.50;5053921;28;20517;-36
2023/05/19 10:27:57;;;;;;;5.93;1.52;;;;;;;17.94;44.63;102511.22;5053846;28;20032;-36
2023/05/19 10:30:30;;;;;;;6.50;2.03;;;;;;;18.00;44.21;102513.00;5054386;28;20029;-36
2023/05/19 10:32:56;;;;;;;4.35;1.67;;;;;;;18.00;44.96;102507.53;5054096;28;20074;-36
2023/05/19 10:35:51;;;;;;;3.55;1.70;;;;;;;18.21;45.05;102509.66;5053743;28;20029;-36
2023/05/19 10:38:26;;;;;;;4.28;1.77;;;;;;;17.94;43.09;102513.97;5053968;28;20036;-36
2023/05/19 10:41:15;;;;;;;7.65;1.95;;;;;;;18.20;45.28;102505.25;5053588;28;20139;-36
2023/05/19 10:43:44;;;;;;;3.33;1.45;;;;;;;18.43;44.96;102490.63;5054443;28;20033;-37
2023/05/19 10:46:10;;;;;;;3.83;1.70;;;;;;;18.36;44.12;102489.13;5054131;28;20041;-36
2023/05/19 10:48:35;;;;;;;5.05;2.03;;;;;;;18.53;43.52;102487.25;5053264;28;20370;-36
2023/05/19 10:51:01;;;;;;;4.60;1.92;;;;;;;18.58;43.32;102484.63;5053491;28;20029;-36
2023/05/19 10:53:30;;;;;;;;;;;;;;;18.87;44.82;102482.72;5054166;28;20029;-36
2023/05/19 10:55:57;;;;;;;4.97;1.73;;;;;;;19.24;45.73;102483.09;5053899;28;19935;-36
2023/05/19 10:58:58;;;;;;;4.18;1.50;;;;;;;19.41;42.46;102491.31;5053720;28;20447;-36
2023/05/19 11:01:30;;;;;;;5.18;1.50;;;;;;;19.19;41.45;102495.91;5031129;28;20132;-36
2023/05/19 11:03:56;;;;;;;5.50;1.63;;;;;;;19.20;41.28;102487.41;5049455;28;20033;-36
2023/05/19 11:06:21;;;;;;;;;;;;;;;19.36;41.99;102485.75;5054341;28;20060;-36
2023/05/19 11:08:52;;;;;;;4.13;1.50;;;;;;;19.29;40.54;102491.41;5053330;28;19908;-36
2023/05/19 11:11:18;;;;;;;4.75;1.50;;;;;;;19.34;40.80;102478.84;5053336;28;20267;-36
2023/05/19 11:13:49;;;;;;;3.50;1.60;;;;;;;19.16;40.30;102485.41;5053600;28;20031;-36
2023/05/19 11:16:18;;;;;;;3.08;1.35;;;;;;;19.31;41.21;102480.19;5054153;28;20029;-36
2023/05/19 11:18:47;;;;;;;6.60;1.77;;;;;;;19.47;41.46;102475.75;5053251;28;20083;-36
2023/05/19 11:21:12;;;;;;;4.22;1.65;;;;;;;19.47;40.92;102473.88;5053564;28;20075;-36
2023/05/19 11:23:40;;;;;;;;;;;;;;;19.68;40.58;102487.91;5053743;28;20021;-36
2023/05/19 11:26:07;;;;;;;2.67;1.33;;;;;;;19.69;45.34;102475.84;5052930;28;19908;-36
2023/05/19 11:28:33;;;;;;;5.47;1.45;;;;;;;19.50;40.31;102478.00;5052904;28;20424;-36
2023/05/19 11:31:01;;;;;;;3.00;1.35;;;;;;;19.43;40.60;102469.94;5053538;28;20032;-36
2023/05/19 11:33:26;;;;;;;3.72;1.33;;;;;;;19.46;41.45;102476.84;5053123;28;20029;-36
2023/05/19 11:35:52;;;;;;;;;;;;;;;19.70;41.81;102472.00;5054208;28;20475;-36
2023/05/19 11:38:19;;;;;;;7.80;1.83;;;;;;;19.54;39.95;102479.16;5053116;28;20258;-36